Time;durP1;ratioP1;P1;durP2;ratioP2;P2;SDS_P1;SDS_P2;PMS_P1;PMS_P2;Temp;Humidity;BMP_temperature;BMP_pressure;BME280_temperature;BME280_humidity;BME280_pressure;Samples;Min_cycle;Max_cycle;Signal;HPM_P1;HPM_P2
2023/01/27 00:02:20;;;;;;;7.37;6.50;;;;;;;;;;4991218;28;20452;-69
2023/01/27 00:04:46;;;;;;;8.17;6.57;;;;;;;;;;4989612;28;20433;-68
2023/01/27 00:07:12;;;;;;;9.53;7.27;;;;;;;;;;4991038;28;20784;-67
2023/01/27 00:09:40;;;;;;;8.13;6.40;;;;;;;;;;4991262;28;20480;-69
2023/01/27 00:14:51;;;;;;;6.77;6.10;;;;;;;;;;4991062;28;20420;-68
2023/01/27 00:17:17;;;;;;;6.30;5.80;;;;;;;;;;4990509;28;20496;-67
2023/01/27 00:19:43;;;;;;;7.00;6.43;;;;;;;;;;4991860;28;20499;-68
2023/01/27 00:24:54;;;;;;;6.37;5.87;;;;;;;;;;4991476;28;20456;-67
2023/01/27 00:27:20;;;;;;;7.33;6.63;;;;;;;;;;4990732;28;21148;-67
2023/01/27 00:29:46;;;;;;;6.30;5.03;;;;;;;;;;4991682;28;20437;-67
2023/01/27 00:34:56;;;;;;;5.97;5.47;;;;;;;;;;4990694;28;20527;-67
2023/01/27 00:37:22;;;;;;;6.90;6.30;;;;;;;;;;4989640;28;20488;-67
2023/01/27 00:39:48;;;;;;;7.00;6.30;;;;;;;;;;4988079;28;20440;-69
2023/01/27 00:42:15;;;;;;;11.80;6.80;;;;;;;;;;4990631;28;20433;-66
2023/01/27 00:45:47;;;;;;;8.73;6.10;;;;;;;;;;4972745;28;20429;-67
2023/01/27 00:47:28;;;;;;;6.57;5.90;;;;;;;;;;4989864;28;20429;-67
2023/01/27 00:49:54;;;;;;;6.83;5.50;;;;;;;;;;4989292;28;20441;-66
2023/01/27 00:52:20;;;;;;;8.20;5.97;;;;;;;;;;4989618;28;21929;-67
2023/01/27 00:54:46;;;;;;;5.30;4.80;;;;;;;;;;4990159;28;20765;-66
2023/01/27 00:57:12;;;;;;;6.17;5.63;;;;;;;;;;4990198;28;21067;-67
2023/01/27 00:59:37;;;;;;;6.17;5.67;;;;;;;;;;4988256;28;20835;-67
2023/01/27 01:02:03;;;;;;;5.90;5.40;;;;;;;;;;4986871;28;20445;-67
2023/01/27 01:04:29;;;;;;;6.40;5.80;;;;;;;;;;4989342;28;20432;-66
2023/01/27 01:06:55;;;;;;;4.83;4.60;;;;;;;;;;4989635;28;20442;-67
2023/01/27 01:09:21;;;;;;;4.93;4.73;;;;;;;;;;4970125;28;20465;-66
2023/01/27 01:11:47;;;;;;;5.03;4.77;;;;;;;;;;4989864;28;20452;-67
2023/01/27 01:14:13;;;;;;;6.43;5.93;;;;;;;;;;4990018;28;20948;-66
2023/01/27 01:16:39;;;;;;;6.57;5.73;;;;;;;;;;4990534;28;21322;-67
2023/01/27 01:19:05;;;;;;;9.13;6.10;;;;;;;;;;4988528;28;21105;-67
2023/01/27 01:21:32;;;;;;;5.73;5.13;;;;;;;;;;4985229;28;20433;-66
2023/01/27 01:23:58;;;;;;;5.70;5.30;;;;;;;;;;4989738;28;20455;-67
2023/01/27 01:26:24;;;;;;;5.90;5.47;;;;;;;;;;4989489;28;20520;-67
2023/01/27 01:28:50;;;;;;;6.10;5.50;;;;;;;;;;4989100;28;20483;-67
2023/01/27 01:31:17;;;;;;;7.47;6.00;;;;;;;;;;4989434;28;20433;-66
2023/01/27 01:33:44;;;;;;;6.47;5.77;;;;;;;;;;4986275;28;20457;-66
2023/01/27 01:36:11;;;;;;;5.60;5.20;;;;;;;;;;4988530;28;20441;-68
2023/01/27 01:38:37;;;;;;;6.70;6.10;;;;;;;;;;4970876;28;20456;-66
2023/01/27 01:41:07;;;;;;;8.10;5.53;;;;;;;;;;4990013;28;20412;-67
2023/01/27 01:43:33;;;;;;;8.30;6.83;;;;;;;;;;4989176;28;20960;-66
2023/01/27 01:46:00;;;;;;;6.13;5.53;;;;;;;;;;4989405;28;20448;-67
2023/01/27 01:48:29;;;;;;;5.70;5.20;;;;;;;;;;4989475;28;20461;-67
2023/01/27 01:51:01;;;;;;;7.40;5.60;;;;;;;;;;4990080;28;20456;-67
2023/01/27 01:53:31;;;;;;;7.23;5.37;;;;;;;;;;4989723;28;20433;-67
2023/01/27 01:55:59;;;;;;;6.60;6.03;;;;;;;;;;4989293;28;20449;-68
2023/01/27 01:58:26;;;;;;;7.60;6.07;;;;;;;;;;4988986;28;20543;-66
2023/01/27 02:00:53;;;;;;;6.77;6.20;;;;;;;;;;4988431;28;20433;-68
2023/01/27 02:03:19;;;;;;;6.30;5.80;;;;;;;;;;4989577;28;20448;-67
2023/01/27 02:05:45;;;;;;;7.10;6.07;;;;;;;;;;4989186;28;20435;-68
2023/01/27 02:08:14;;;;;;;8.73;5.67;;;;;;;;;;4989981;28;20798;-69
2023/01/27 02:10:41;;;;;;;7.23;6.53;;;;;;;;;;4971329;28;20503;-67
2023/01/27 02:13:07;;;;;;;6.80;6.07;;;;;;;;;;4988826;28;20520;-67
2023/01/27 02:15:33;;;;;;;8.13;6.33;;;;;;;;;;4989984;28;20523;-67
2023/01/27 02:18:00;;;;;;;5.27;4.73;;;;;;;;;;4989826;28;20516;-67
2023/01/27 02:20:30;;;;;;;7.13;6.40;;;;;;;;;;4989704;28;20516;-67
2023/01/27 02:23:15;;;;;;;6.83;6.13;;;;;;;;;;4989329;28;20900;-68
2023/01/27 02:25:53;;;;;;;6.37;5.33;;;;;;;;;;4988509;28;20963;-70
2023/01/27 02:28:19;;;;;;;6.10;5.70;;;;;;;;;;4989778;28;20495;-69
2023/01/27 02:30:45;;;;;;;6.07;5.53;;;;;;;;;;4989398;28;20524;-67
2023/01/27 02:33:11;;;;;;;5.93;5.40;;;;;;;;;;4991104;28;20429;-70
2023/01/27 02:35:41;;;;;;;6.50;5.90;;;;;;;;;;4990686;28;20980;-68
2023/01/27 02:38:08;;;;;;;7.60;6.57;;;;;;;;;;4992142;28;20484;-67
2023/01/27 02:40:34;;;;;;;6.73;5.83;;;;;;;;;;4992176;28;20559;-68
2023/01/27 02:42:59;;;;;;;7.23;6.53;;;;;;;;;;4993149;28;20448;-68
2023/01/27 02:45:27;;;;;;;6.97;6.37;;;;;;;;;;4993073;28;20440;-67
2023/01/27 02:47:53;;;;;;;7.90;6.07;;;;;;;;;;4992943;28;20798;-69
2023/01/27 02:50:19;;;;;;;6.80;6.20;;;;;;;;;;4990913;28;20925;-67
2023/01/27 02:52:45;;;;;;;9.37;6.67;;;;;;;;;;4974130;28;20894;-66
2023/01/27 02:55:11;;;;;;;7.17;6.53;;;;;;;;;;4993023;28;20437;-68
2023/01/27 02:57:37;;;;;;;4.63;4.30;;;;;;;;;;4992206;28;20480;-66
2023/01/27 03:00:03;;;;;;;7.40;6.27;;;;;;;;;;4992433;28;20536;-67
2023/01/27 03:02:29;;;;;;;7.93;7.23;;;;;;;;;;4974479;28;20472;-66
2023/01/27 03:05:01;;;;;;;8.37;6.97;;;;;;;;;;4975254;28;20965;-68
2023/01/27 03:07:27;;;;;;;8.10;7.37;;;;;;;;;;4992539;28;20491;-67
2023/01/27 03:09:53;;;;;;;6.53;6.03;;;;;;;;;;4991308;28;20468;-68
2023/01/27 03:12:19;;;;;;;8.33;7.53;;;;;;;;;;4991810;28;20448;-67
2023/01/27 03:20:15;;;;;;;11.00;7.93;;;;;;;;;;4991314;28;20791;-67
2023/01/27 03:22:41;;;;;;;7.60;6.90;;;;;;;;;;4991064;28;20437;-67
2023/01/27 03:25:07;;;;;;;11.13;8.60;;;;;;;;;;4992089;28;20452;-68
2023/01/27 03:27:33;;;;;;;9.97;6.63;;;;;;;;;;4992558;28;20862;-67
2023/01/27 03:29:59;;;;;;;11.20;7.90;;;;;;;;;;4992284;28;20544;-67
2023/01/27 03:32:26;;;;;;;10.57;8.17;;;;;;;;;;4991793;28;20953;-66
2023/01/27 03:34:52;;;;;;;7.00;6.40;;;;;;;;;;4991374;28;20465;-69
2023/01/27 03:48:20;;;;;;;13.00;8.60;;;;;;;;;;4991839;28;20464;-67
2023/01/27 03:50:51;;;;;;;9.47;8.57;;;;;;;;;;4990486;28;20921;-68
2023/01/27 03:53:18;;;;;;;8.60;7.40;;;;;;;;;;4991095;28;20441;-67
2023/01/27 03:55:45;;;;;;;10.80;8.60;;;;;;;;;;4991335;28;20433;-68
2023/01/27 03:58:22;;;;;;;8.20;7.40;;;;;;;;;;4990659;28;20492;-66
2023/01/27 04:00:52;;;;;;;8.83;7.97;;;;;;;;;;4990653;28;20433;-66
2023/01/27 04:08:49;;;;;;;8.80;7.07;;;;;;;;;;4990442;28;20931;-68
2023/01/27 04:14:01;;;;;;;7.73;6.80;;;;;;;;;;4990791;28;20440;-68
2023/01/27 04:16:29;;;;;;;10.10;8.33;;;;;;;;;;4990245;28;20503;-68
2023/01/27 04:18:55;;;;;;;15.53;7.90;;;;;;;;;;4989317;28;20866;-67
2023/01/27 04:21:21;;;;;;;9.57;8.37;;;;;;;;;;4989865;28;20425;-67
2023/01/27 04:23:47;;;;;;;11.83;8.80;;;;;;;;;;4991008;28;20524;-66
2023/01/27 04:26:13;;;;;;;10.63;8.53;;;;;;;;;;4991049;28;20551;-67
2023/01/27 04:28:39;;;;;;;9.10;8.27;;;;;;;;;;4991001;28;20433;-66
2023/01/27 04:31:05;;;;;;;14.80;8.80;;;;;;;;;;4990605;28;20448;-66
2023/01/27 04:33:31;;;;;;;11.00;8.07;;;;;;;;;;4990052;28;20524;-67
2023/01/27 04:35:57;;;;;;;12.63;9.10;;;;;;;;;;4990616;28;20527;-66
2023/01/27 04:38:23;;;;;;;10.37;8.80;;;;;;;;;;4990549;28;20489;-66
2023/01/27 04:40:49;;;;;;;10.63;9.20;;;;;;;;;;4990259;28;20503;-66
2023/01/27 04:43:15;;;;;;;13.03;8.07;;;;;;;;;;4990284;28;20976;-67
2023/01/27 04:45:41;;;;;;;9.73;7.23;;;;;;;;;;4989359;28;20488;-68
2023/01/27 04:48:07;;;;;;;12.93;10.07;;;;;;;;;;4987277;28;20556;-67
2023/01/27 04:50:33;;;;;;;10.07;9.00;;;;;;;;;;4990163;28;20197;-66
2023/01/27 04:52:59;;;;;;;9.33;8.20;;;;;;;;;;4990665;28;21009;-67
2023/01/27 04:55:25;;;;;;;11.07;9.17;;;;;;;;;;4990520;28;20531;-66
2023/01/27 04:57:51;;;;;;;9.70;8.10;;;;;;;;;;4989481;28;20548;-67
2023/01/27 05:00:17;;;;;;;9.20;7.63;;;;;;;;;;4987518;28;20433;-66
2023/01/27 05:02:43;;;;;;;7.93;7.20;;;;;;;;;;4989614;28;20445;-68
2023/01/27 05:05:09;;;;;;;10.20;9.13;;;;;;;;;;4990090;28;20429;-71
2023/01/27 05:07:35;;;;;;;10.80;8.50;;;;;;;;;;4989819;28;20789;-71
2023/01/27 05:10:01;;;;;;;11.10;7.57;;;;;;;;;;4988862;28;20983;-66
2023/01/27 05:12:27;;;;;;;7.50;6.80;;;;;;;;;;4989640;28;20443;-68
2023/01/27 05:14:53;;;;;;;10.03;7.07;;;;;;;;;;4990346;28;20425;-67
2023/01/27 05:17:19;;;;;;;8.57;7.73;;;;;;;;;;4989985;28;20500;-69
2023/01/27 05:19:45;;;;;;;7.53;6.90;;;;;;;;;;4989218;28;20432;-67
2023/01/27 05:22:11;;;;;;;10.07;7.50;;;;;;;;;;4988669;28;20453;-67
2023/01/27 05:24:37;;;;;;;7.83;6.93;;;;;;;;;;4989249;28;20464;-67
2023/01/27 05:27:03;;;;;;;7.27;6.60;;;;;;;;;;4972685;28;20475;-67
2023/01/27 05:29:29;;;;;;;10.47;7.93;;;;;;;;;;4990007;28;20429;-67
2023/01/27 05:31:55;;;;;;;11.10;8.60;;;;;;;;;;4987739;28;20444;-70
2023/01/27 05:34:21;;;;;;;9.00;7.20;;;;;;;;;;4970311;28;20448;-67
2023/01/27 05:36:47;;;;;;;15.00;10.80;;;;;;;;;;4987943;28;20468;-67
2023/01/27 05:39:13;;;;;;;8.17;7.40;;;;;;;;;;4989898;28;20455;-67
2023/01/27 05:41:39;;;;;;;9.80;7.77;;;;;;;;;;4989621;28;20608;-67
2023/01/27 05:44:05;;;;;;;8.90;8.00;;;;;;;;;;4989489;28;20672;-66
2023/01/27 05:46:32;;;;;;;7.93;7.13;;;;;;;;;;4971276;28;21023;-66
2023/01/27 05:49:03;;;;;;;7.90;6.67;;;;;;;;;;4988406;28;20472;-66
2023/01/27 05:51:31;;;;;;;9.00;6.63;;;;;;;;;;4987856;28;20519;-65
2023/01/27 05:53:57;;;;;;;10.47;8.03;;;;;;;;;;4989272;28;20443;-69
2023/01/27 05:56:25;;;;;;;12.80;7.77;;;;;;;;;;4989633;28;20432;-67
2023/01/27 05:58:52;;;;;;;8.83;7.90;;;;;;;;;;4989837;28;20937;-66
2023/01/27 06:01:20;;;;;;;10.97;7.50;;;;;;;;;;4988572;28;20465;-66
2023/01/27 06:03:46;;;;;;;12.70;7.80;;;;;;;;;;4989468;28;20473;-66
2023/01/27 06:06:13;;;;;;;9.60;8.13;;;;;;;;;;4988882;28;20947;-66
2023/01/27 06:08:39;;;;;;;11.13;8.10;;;;;;;;;;4992311;28;20560;-66
2023/01/27 06:11:05;;;;;;;13.77;8.73;;;;;;;;;;4993516;28;20523;-69
2023/01/27 06:13:34;;;;;;;11.00;8.93;;;;;;;;;;4993717;28;20519;-66
2023/01/27 06:16:01;;;;;;;9.43;7.50;;;;;;;;;;4993948;28;20412;-67
2023/01/27 06:18:27;;;;;;;10.93;7.90;;;;;;;;;;4994269;28;20484;-68
2023/01/27 06:20:52;;;;;;;8.20;7.40;;;;;;;;;;4974731;28;20441;-66
2023/01/27 06:23:19;;;;;;;10.90;7.93;;;;;;;;;;4991914;28;20436;-68
2023/01/27 06:25:46;;;;;;;12.60;8.07;;;;;;;;;;4993410;28;20425;-67
2023/01/27 06:28:12;;;;;;;12.73;9.00;;;;;;;;;;4994020;28;20527;-67
2023/01/27 06:30:38;;;;;;;9.50;7.53;;;;;;;;;;4993510;28;20421;-67
2023/01/27 06:33:05;;;;;;;10.00;7.37;;;;;;;;;;4991529;28;20449;-67
2023/01/27 06:35:32;;;;;;;7.60;6.97;;;;;;;;;;4991992;28;20432;-67
2023/01/27 06:37:58;;;;;;;7.17;6.57;;;;;;;;;;4993519;28;20507;-66
2023/01/27 06:40:24;;;;;;;9.23;7.67;;;;;;;;;;4992882;28;20481;-66
2023/01/27 06:42:50;;;;;;;11.10;7.97;;;;;;;;;;4992281;28;20528;-66
2023/01/27 06:45:17;;;;;;;6.97;6.37;;;;;;;;;;4987627;28;20524;-66
2023/01/27 06:47:42;;;;;;;12.83;7.53;;;;;;;;;;4991546;28;20999;-66
2023/01/27 06:50:09;;;;;;;7.73;7.03;;;;;;;;;;4991110;28;20433;-65
2023/01/27 06:52:35;;;;;;;8.47;7.53;;;;;;;;;;4992315;28;20796;-66
2023/01/27 06:55:01;;;;;;;12.00;8.80;;;;;;;;;;4991396;28;20576;-66
2023/01/27 06:57:28;;;;;;;10.47;7.10;;;;;;;;;;4990475;28;20499;-68
2023/01/27 06:59:53;;;;;;;8.30;7.60;;;;;;;;;;4990895;28;20437;-65
2023/01/27 07:02:19;;;;;;;8.87;6.50;;;;;;;;;;4991535;28;20858;-66
2023/01/27 07:04:45;;;;;;;9.30;6.90;;;;;;;;;;4991399;28;20437;-65
2023/01/27 07:07:11;;;;;;;7.07;6.47;;;;;;;;;;4989948;28;20445;-66
2023/01/27 07:09:37;;;;;;;7.70;6.90;;;;;;;;;;4988654;28;20558;-66
2023/01/27 07:12:03;;;;;;;8.40;7.20;;;;;;;;;;4991248;28;20520;-68
2023/01/27 07:14:29;;;;;;;7.80;7.00;;;;;;;;;;4971341;28;20431;-71
2023/01/27 07:16:55;;;;;;;7.37;6.77;;;;;;;;;;4989857;28;20510;-72
2023/01/27 07:19:21;;;;;;;7.97;6.80;;;;;;;;;;4988381;28;20460;-70
2023/01/27 07:21:47;;;;;;;8.70;7.30;;;;;;;;;;4990126;28;20436;-70
2023/01/27 07:24:13;;;;;;;6.67;6.17;;;;;;;;;;4992623;28;20437;-70
2023/01/27 07:26:39;;;;;;;9.57;7.73;;;;;;;;;;4988815;28;20429;-70
2023/01/27 07:29:05;;;;;;;14.83;6.67;;;;;;;;;;4991044;28;20948;-71
2023/01/27 07:31:33;;;;;;;10.17;6.87;;;;;;;;;;4991111;28;20444;-71
2023/01/27 07:33:59;;;;;;;12.70;7.90;;;;;;;;;;4989938;28;20443;-72
2023/01/27 07:36:25;;;;;;;8.33;7.43;;;;;;;;;;4989983;28;20544;-71
2023/01/27 07:38:51;;;;;;;8.97;7.90;;;;;;;;;;4991752;28;20461;-71
2023/01/27 07:41:17;;;;;;;9.57;8.67;;;;;;;;;;4974294;28;20433;-71
2023/01/27 07:43:43;;;;;;;8.90;8.00;;;;;;;;;;4990868;28;20476;-69
2023/01/27 07:46:09;;;;;;;8.70;7.60;;;;;;;;;;4989801;28;20799;-68
2023/01/27 07:48:35;;;;;;;10.80;7.40;;;;;;;;;;4990723;28;20448;-69
2023/01/27 07:51:01;;;;;;;13.73;9.73;;;;;;;;;;4991692;28;20472;-68
2023/01/27 07:53:26;;;;;;;8.00;7.20;;;;;;;;;;4990504;28;20440;-72
2023/01/27 07:55:52;;;;;;;8.30;7.20;;;;;;;;;;4987050;28;20448;-68
2023/01/27 07:58:19;;;;;;;13.77;9.67;;;;;;;;;;4990476;28;20480;-68
2023/01/27 08:00:44;;;;;;;10.00;9.00;;;;;;;;;;4990596;28;20433;-68
2023/01/27 08:03:20;;;;;;;8.07;7.37;;;;;;;;;;4989896;28;20440;-67
2023/01/27 08:05:46;;;;;;;16.60;9.00;;;;;;;;;;4986381;28;20444;-68
2023/01/27 08:08:12;;;;;;;9.33;8.53;;;;;;;;;;4952631;28;20470;-68
2023/01/27 08:10:38;;;;;;;9.27;8.00;;;;;;;;;;4988212;28;20449;-67
2023/01/27 08:13:05;;;;;;;9.60;7.93;;;;;;;;;;4990889;28;20445;-70
2023/01/27 08:15:31;;;;;;;9.20;8.30;;;;;;;;;;4989181;28;20810;-69
2023/01/27 08:17:58;;;;;;;10.37;8.87;;;;;;;;;;4972459;28;20572;-71
2023/01/27 08:20:25;;;;;;;9.90;8.50;;;;;;;;;;4989832;28;20437;-71
2023/01/27 08:22:51;;;;;;;10.87;8.33;;;;;;;;;;4986319;28;20451;-68
2023/01/27 08:25:16;;;;;;;8.77;7.83;;;;;;;;;;4991100;28;20924;-71
2023/01/27 08:27:43;;;;;;;11.20;9.30;;;;;;;;;;4989942;28;20479;-70
2023/01/27 08:30:09;;;;;;;10.43;9.33;;;;;;;;;;4989520;28;20432;-72
2023/01/27 08:32:35;;;;;;;11.50;8.20;;;;;;;;;;4988926;28;20463;-71
2023/01/27 08:35:01;;;;;;;6.80;6.20;;;;;;;;;;4989113;28;20535;-68
2023/01/27 08:37:27;;;;;;;11.70;9.63;;;;;;;;;;4988807;28;20493;-70
2023/01/27 08:39:53;;;;;;;10.17;8.40;;;;;;;;;;4989814;28;20441;-70
2023/01/27 08:42:20;;;;;;;14.03;8.37;;;;;;;;;;4990066;28;20437;-69
2023/01/27 08:44:46;;;;;;;14.03;9.30;;;;;;;;;;4986615;28;20429;-67
2023/01/27 08:47:12;;;;;;;15.47;8.57;;;;;;;;;;4988107;28;20452;-68
2023/01/27 08:49:38;;;;;;;9.03;7.97;;;;;;;;;;4987475;28;20933;-67
2023/01/27 08:52:04;;;;;;;9.70;8.70;;;;;;;;;;4988272;28;20523;-69
2023/01/27 08:54:30;;;;;;;12.13;9.80;;;;;;;;;;4990515;28;20436;-68
2023/01/27 08:56:57;;;;;;;10.60;8.53;;;;;;;;;;4972243;28;20888;-66
2023/01/27 08:59:23;;;;;;;9.73;8.17;;;;;;;;;;4990349;28;20495;-67
2023/01/27 09:01:48;;;;;;;10.00;9.00;;;;;;;;;;4988908;28;20436;-67
2023/01/27 09:04:14;;;;;;;11.43;9.30;;;;;;;;;;4988460;28;20464;-66
2023/01/27 09:06:40;;;;;;;13.30;8.70;;;;;;;;;;4985872;28;20437;-69
2023/01/27 09:09:09;;;;;;;10.13;7.87;;;;;;;;;;4985629;28;21020;-69
2023/01/27 09:11:36;;;;;;;11.33;9.33;;;;;;;;;;4985311;28;20441;-67
2023/01/27 09:14:02;;;;;;;9.37;8.47;;;;;;;;;;4987093;28;20441;-66
2023/01/27 09:16:28;;;;;;;13.20;8.97;;;;;;;;;;4972910;28;20444;-71
2023/01/27 09:18:54;;;;;;;11.10;8.27;;;;;;;;;;4986865;28;20814;-68
2023/01/27 09:21:20;;;;;;;8.20;7.10;;;;;;;;;;4987129;28;20629;-68
2023/01/27 09:23:50;;;;;;;9.77;7.60;;;;;;;;;;4970341;28;21080;-69
2023/01/27 09:26:16;;;;;;;8.83;7.93;;;;;;;;;;4987438;28;20492;-67
2023/01/27 09:28:42;;;;;;;9.63;8.63;;;;;;;;;;4988093;28;20437;-66
2023/01/27 09:31:08;;;;;;;11.87;8.67;;;;;;;;;;4987796;28;20441;-66
2023/01/27 09:33:35;;;;;;;14.80;10.90;;;;;;;;;;4986909;28;20481;-67
2023/01/27 09:36:15;;;;;;;7.37;6.40;;;;;;;;;;4969924;28;20449;-66
2023/01/27 09:38:50;;;;;;;10.77;7.93;;;;;;;;;;4986324;28;20941;-66
2023/01/27 09:41:28;;;;;;;9.40;8.33;;;;;;;;;;4986141;28;20444;-68
2023/01/27 09:44:04;;;;;;;9.10;8.17;;;;;;;;;;4989992;28;20437;-66
2023/01/27 09:46:37;;;;;;;91.63;38.13;;;;;;;;;;4985095;28;20433;-68
2023/01/27 09:49:19;;;;;;;13.13;9.50;;;;;;;;;;4986560;28;20960;-70
2023/01/27 09:51:51;;;;;;;9.33;8.30;;;;;;;;;;4986881;28;20429;-69
2023/01/27 09:54:28;;;;;;;16.20;9.20;;;;;;;;;;4988968;28;20417;-68
2023/01/27 09:57:02;;;;;;;17.40;8.13;;;;;;;;;;4989311;28;20480;-67
2023/01/27 09:59:35;;;;;;;15.57;7.00;;;;;;;;;;4988392;28;20497;-67
2023/01/27 10:02:04;;;;;;;10.20;7.53;;;;;;;;;;4987956;28;20433;-66
2023/01/27 10:05:02;;;;;;;10.33;7.40;;;;;;;;;;4987581;28;20429;-68
2023/01/27 10:07:34;;;;;;;10.93;7.90;;;;;;;;;;4954214;28;20465;-67
2023/01/27 10:10:19;;;;;;;11.97;8.13;;;;;;;;;;4987232;28;20484;-70
2023/01/27 10:13:04;;;;;;;11.50;8.03;;;;;;;;;;4988644;28;20433;-67
2023/01/27 10:15:48;;;;;;;15.10;12.10;;;;;;;;;;4971584;28;20784;-71
2023/01/27 10:18:29;;;;;;;72.57;43.77;;;;;;;;;;4990195;28;20630;-69
2023/01/27 10:20:59;;;;;;;10.80;9.70;;;;;;;;;;4989177;28;20433;-67
2023/01/27 10:23:31;;;;;;;9.50;8.37;;;;;;;;;;4988421;28;20793;-71
2023/01/27 10:26:16;;;;;;;14.33;10.83;;;;;;;;;;4988761;28;21030;-71
2023/01/27 10:28:46;;;;;;;15.13;11.10;;;;;;;;;;4986462;28;20472;-68
2023/01/27 10:31:36;;;;;;;13.40;9.97;;;;;;;;;;4985558;28;20959;-66
2023/01/27 10:34:20;;;;;;;9.33;8.30;;;;;;;;;;4980459;28;20449;-70
2023/01/27 10:36:55;;;;;;;15.47;10.50;;;;;;;;;;4985563;28;20535;-67
2023/01/27 10:39:29;;;;;;;13.20;9.90;;;;;;;;;;4987586;28;20555;-72
2023/01/27 10:42:04;;;;;;;8.70;7.80;;;;;;;;;;4988181;28;20937;-72
2023/01/27 10:44:39;;;;;;;8.77;7.47;;;;;;;;;;4989895;28;20428;-72
2023/01/27 10:47:30;;;;;;;9.50;7.00;;;;;;;;;;4988361;28;20438;-71
2023/01/27 10:49:59;;;;;;;9.90;6.90;;;;;;;;;;4988957;28;20849;-70
2023/01/27 10:52:29;;;;;;;27.27;15.30;;;;;;;;;;4984543;28;20448;-70
2023/01/27 10:55:01;;;;;;;6.97;6.47;;;;;;;;;;4991582;28;20448;-69
2023/01/27 10:57:31;;;;;;;8.23;7.13;;;;;;;;;;4992657;28;21169;-69
2023/01/27 11:00:04;;;;;;;7.60;6.13;;;;;;;;;;4992911;28;20493;-69
2023/01/27 11:02:44;;;;;;;7.43;6.70;;;;;;;;;;4992884;28;20944;-69
2023/01/27 11:05:22;;;;;;;9.00;7.23;;;;;;;;;;4991517;28;20433;-72
2023/01/27 11:07:53;;;;;;;5.97;5.37;;;;;;;;;;4992901;28;20413;-69
2023/01/27 11:10:20;;;;;;;20.70;6.70;;;;;;;;;;4992172;28;20476;-71
2023/01/27 11:12:51;;;;;;;6.93;6.33;;;;;;;;;;4992441;28;20456;-71
2023/01/27 11:15:25;;;;;;;11.93;6.00;;;;;;;;;;4989434;28;20483;-72
2023/01/27 11:17:51;;;;;;;8.70;7.37;;;;;;;;;;4991589;28;20507;-73
2023/01/27 11:20:26;;;;;;;6.77;6.10;;;;;;;;;;4991097;28;20925;-69
2023/01/27 11:22:58;;;;;;;8.43;6.40;;;;;;;;;;4991592;28;20444;-68
2023/01/27 11:25:24;;;;;;;6.80;5.20;;;;;;;;;;4990642;28;20440;-70
2023/01/27 11:28:08;;;;;;;5.83;5.33;;;;;;;;;;4988781;28;20429;-72
2023/01/27 11:30:57;;;;;;;8.63;5.97;;;;;;;;;;4988394;28;20970;-72
2023/01/27 11:33:39;;;;;;;6.57;5.90;;;;;;;;;;4974877;28;20454;-72
2023/01/27 11:36:06;;;;;;;5.83;5.40;;;;;;;;;;4985508;28;20514;-71
2023/01/27 11:38:32;;;;;;;11.13;6.17;;;;;;;;;;4987887;28;20496;-70
2023/01/27 11:40:58;;;;;;;14.27;4.50;;;;;;;;;;4991895;28;20796;-67
2023/01/27 11:43:25;;;;;;;11.53;5.27;;;;;;;;;;4990270;28;20548;-67
2023/01/27 11:45:54;;;;;;;5.47;4.97;;;;;;;;;;4986670;28;20940;-70
2023/01/27 11:48:20;;;;;;;6.90;5.00;;;;;;;;;;4987529;28;20440;-71
2023/01/27 11:50:46;;;;;;;5.20;4.80;;;;;;;;;;4969411;28;20435;-68
2023/01/27 11:53:26;;;;;;;4.20;3.90;;;;;;;;;;4990401;28;20485;-66
2023/01/27 11:55:59;;;;;;;4.60;4.20;;;;;;;;;;4990391;28;20461;-71
2023/01/27 11:58:26;;;;;;;4.03;3.73;;;;;;;;;;4987615;28;20489;-71
2023/01/27 12:01:31;;;;;;;5.20;4.77;;;;;;;;;;4989507;28;20432;-70
2023/01/27 12:04:06;;;;;;;3.87;3.57;;;;;;;;;;4930113;29;20435;-71
2023/01/27 12:06:31;;;;;;;4.17;3.87;;;;;;;;;;4929470;29;20970;-69
2023/01/27 12:08:57;;;;;;;4.67;4.00;;;;;;;;;;4960776;28;20485;-72
2023/01/27 12:11:30;;;;;;;9.27;4.90;;;;;;;;;;4991690;28;20425;-72
2023/01/27 12:13:58;;;;;;;4.30;3.90;;;;;;;;;;4989370;28;20563;-71
2023/01/27 12:16:26;;;;;;;3.87;3.57;;;;;;;;;;4991508;28;20433;-72
2023/01/27 12:18:54;;;;;;;9.60;4.13;;;;;;;;;;4989974;28;20457;-71
2023/01/27 12:21:33;;;;;;;3.53;3.33;;;;;;;;;;4988670;28;20501;-72
2023/01/27 12:23:59;;;;;;;3.03;2.70;;;;;;;;;;4988703;28;20436;-72
2023/01/27 12:26:35;;;;;;;3.57;3.23;;;;;;;;;;4990840;28;20492;-68
2023/01/27 12:29:04;;;;;;;3.53;3.40;;;;;;;;;;4973228;28;20670;-68
2023/01/27 12:31:31;;;;;;;4.30;2.80;;;;;;;;;;4973325;28;20433;-68
2023/01/27 12:34:05;;;;;;;3.93;3.73;;;;;;;;;;4971525;28;20932;-66
2023/01/27 12:36:39;;;;;;;2.63;2.53;;;;;;;;;;4988909;28;20441;-68
2023/01/27 12:39:06;;;;;;;3.40;3.20;;;;;;;;;;4989277;28;20472;-67
2023/01/27 12:41:33;;;;;;;4.30;2.70;;;;;;;;;;4990287;28;20452;-68
2023/01/27 12:44:14;;;;;;;3.23;3.13;;;;;;;;;;4990698;28;20491;-72
2023/01/27 12:46:54;;;;;;;2.90;2.80;;;;;;;;;;4990471;28;20429;-70
2023/01/27 12:49:20;;;;;;;3.40;3.20;;;;;;;;;;4990916;28;20416;-73
2023/01/27 12:51:55;;;;;;;2.93;2.47;;;;;;;;;;4991282;28;20417;-68
2023/01/27 12:54:21;;;;;;;3.23;2.90;;;;;;;;;;4990622;28;20472;-68
2023/01/27 12:56:48;;;;;;;2.30;2.30;;;;;;;;;;4990029;28;20503;-69
2023/01/27 12:59:16;;;;;;;3.23;3.13;;;;;;;;;;4991052;28;20436;-68
2023/01/27 13:01:45;;;;;;;3.23;2.87;;;;;;;;;;4990971;28;20451;-71
2023/01/27 13:04:19;;;;;;;3.43;3.27;;;;;;;;;;4990167;28;20426;-72
2023/01/27 13:06:50;;;;;;;2.57;2.57;;;;;;;;;;4990081;28;20467;-74
2023/01/27 13:09:25;;;;;;;3.57;3.10;;;;;;;;;;4990877;28;20523;-66
2023/01/27 13:11:52;;;;;;;8.20;2.87;;;;;;;;;;4990828;28;20463;-72
2023/01/27 13:14:18;;;;;;;2.27;2.27;;;;;;;;;;4973051;28;20433;-67
2023/01/27 13:16:54;;;;;;;3.73;3.60;;;;;;;;;;4988343;28;20515;-72
2023/01/27 13:19:22;;;;;;;4.07;3.53;;;;;;;;;;4970717;28;20432;-73
2023/01/27 13:21:50;;;;;;;3.17;2.97;;;;;;;;;;4990203;28;20923;-72
2023/01/27 13:24:20;;;;;;;8.17;7.37;;;;;;;;;;4985091;28;20440;-71
2023/01/27 13:26:47;;;;;;;4.10;3.90;;;;;;;;;;4989297;28;20448;-71
2023/01/27 13:29:15;;;;;;;3.23;3.03;;;;;;;;;;4987639;28;20440;-72
2023/01/27 13:31:47;;;;;;;2.80;2.70;;;;;;;;;;4987198;28;20429;-72
2023/01/27 13:34:18;;;;;;;4.20;3.90;;;;;;;;;;4986570;28;21904;-71
2023/01/27 13:37:07;;;;;;;3.87;3.67;;;;;;;;;;4989430;28;20971;-70
2023/01/27 13:39:47;;;;;;;3.87;3.67;;;;;;;;;;4982194;28;20951;-71
2023/01/27 13:42:20;;;;;;;3.00;2.90;;;;;;;;;;4971221;28;20448;-73
2023/01/27 13:45:01;;;;;;;5.53;4.07;;;;;;;;;;4987799;28;20858;-71
2023/01/27 13:47:47;;;;;;;2.20;2.20;;;;;;;;;;4989374;28;21148;-71
2023/01/27 13:50:19;;;;;;;4.33;3.80;;;;;;;;;;4989714;28;20484;-70
2023/01/27 13:52:49;;;;;;;3.40;3.30;;;;;;;;;;4972325;28;20432;-70
2023/01/27 13:55:15;;;;;;;3.87;3.50;;;;;;;;;;4989977;28;20471;-70
2023/01/27 13:57:47;;;;;;;2.53;2.50;;;;;;;;;;4972035;28;20902;-72
2023/01/27 14:00:18;;;;;;;4.37;4.07;;;;;;;;;;4989879;28;20433;-72
2023/01/27 14:02:45;;;;;;;12.00;3.93;;;;;;;;;;4988634;28;20932;-69
2023/01/27 14:05:20;;;;;;;3.70;3.50;;;;;;;;;;4989839;28;20433;-72
2023/01/27 14:07:51;;;;;;;5.43;4.90;;;;;;;;;;4989759;28;20432;-72
2023/01/27 14:10:20;;;;;;;7.80;4.67;;;;;;;;;;4989377;28;20496;-71
2023/01/27 14:12:58;;;;;;;4.90;4.40;;;;;;;;;;4989323;28;20432;-71
2023/01/27 14:15:31;;;;;;;5.20;4.90;;;;;;;;;;4989758;28;20788;-71
2023/01/27 14:18:05;;;;;;;6.87;4.80;;;;;;;;;;4985083;28;20480;-72
2023/01/27 14:20:36;;;;;;;4.70;4.40;;;;;;;;;;4988027;28;20433;-72
2023/01/27 14:23:21;;;;;;;5.80;4.50;;;;;;;;;;4988196;28;20924;-70
2023/01/27 14:26:06;;;;;;;5.80;5.30;;;;;;;;;;4989459;28;20429;-72
2023/01/27 14:28:43;;;;;;;9.70;6.10;;;;;;;;;;4973091;28;20440;-68
2023/01/27 14:31:14;;;;;;;11.97;7.73;;;;;;;;;;4992979;28;20428;-71
2023/01/27 14:33:52;;;;;;;19.57;7.37;;;;;;;;;;4991803;28;20998;-72
2023/01/27 14:36:20;;;;;;;12.97;9.00;;;;;;;;;;4992859;28;20439;-72
2023/01/27 14:38:52;;;;;;;7.73;6.83;;;;;;;;;;4993171;28;20476;-72
2023/01/27 14:41:21;;;;;;;11.77;8.17;;;;;;;;;;4991583;28;20518;-70
2023/01/27 14:43:47;;;;;;;7.63;6.83;;;;;;;;;;4990476;28;20505;-72
2023/01/27 14:46:13;;;;;;;7.37;6.40;;;;;;;;;;4993147;28;20433;-72
2023/01/27 14:48:38;;;;;;;6.40;5.90;;;;;;;;;;4974628;28;20433;-73
2023/01/27 14:51:04;;;;;;;6.97;5.90;;;;;;;;;;4989019;28;20955;-73
2023/01/27 14:53:51;;;;;;;7.03;6.20;;;;;;;;;;4990944;28;20432;-71
2023/01/27 14:56:23;;;;;;;5.63;5.17;;;;;;;;;;4992239;28;20470;-73
2023/01/27 14:58:58;;;;;;;8.17;6.67;;;;;;;;;;4992325;28;20489;-73
2023/01/27 15:01:27;;;;;;;6.07;5.57;;;;;;;;;;4989602;28;20459;-69
2023/01/27 15:03:53;;;;;;;5.20;4.80;;;;;;;;;;4989310;28;20949;-73
2023/01/27 15:06:40;;;;;;;8.53;6.40;;;;;;;;;;4972923;28;20436;-72
2023/01/27 15:09:18;;;;;;;7.83;7.13;;;;;;;;;;4991214;28;20499;-72
2023/01/27 15:11:44;;;;;;;10.30;5.17;;;;;;;;;;4974695;28;20439;-71
2023/01/27 15:14:16;;;;;;;5.93;5.43;;;;;;;;;;4992092;28;20437;-71
2023/01/27 15:16:50;;;;;;;6.90;6.20;;;;;;;;;;4992525;28;20429;-72
2023/01/27 15:19:16;;;;;;;5.87;5.40;;;;;;;;;;4975336;28;20437;-71
2023/01/27 15:21:48;;;;;;;4.60;4.30;;;;;;;;;;4992872;28;20448;-70
2023/01/27 15:24:26;;;;;;;5.60;5.10;;;;;;;;;;4990928;28;20479;-70